Terminal Aerodrome Forecast
Issued by NWS

Home | Current Version | Previous Version | Text Only | Print | Product List | Glossary On
Versions: 1 2 3 4 5 6 7 8 9 10 11 12 13 14 15 16 17 18 19 20 21
000
FTUS41 KPBZ 021100
TAFHLG
TAF
KHLG 021120Z 0212/0312 VRB03KT 1/4SM FG VV002
      TEMPO 0213/0215 2SM BR BKN025
     FM021500 VRB03KT P6SM SCT025=

USA.gov is the U.S. government's official web portal to all federal, state and local government web resources and services.